Terminal Aerodrome Forecast
Issued by NWS Twin Cities, MN

Home | Current Version | Previous Version | Graphics & Text | Print | Product List | Glossary On
Versions: 1 2 3 4 5 6 7 8 9 10 11 12 13 14 15
000
FTUS43 KMPX 210207 AAA
TAFEAU
TAF AMD
KEAU 210207Z 2102/2124 32012G18KT P6SM BKN028
      TEMPO 2102/2104 SCT028
     FM210400 32010KT P6SM BKN030
     FM211000 30006KT P6SM BKN035
     FM211600 35010KT P6SM SCT030=

USA.gov is the U.S. government's official web portal to all federal, state and local government web resources and services.